createdAt,value
2024-02-26T00:01:46.505Z,100142.16
2024-02-26T00:04:13.704Z,100144.69
2024-02-26T00:06:56.133Z,100146.59
2024-02-26T00:09:22.913Z,100155.84
2024-02-26T00:11:50.621Z,100150.22
2024-02-26T00:14:48.278Z,100159.47
2024-02-26T00:17:15.056Z,100155.44
2024-02-26T00:19:41.864Z,100156.56
2024-02-26T00:23:19.333Z,100157.97
2024-02-26T00:26:14.325Z,100165.31
2024-02-26T00:29:06.217Z,100165.09
2024-02-26T00:31:39.190Z,100166.50
2024-02-26T00:34:31.956Z,100162.47
2024-02-26T00:37:08.363Z,100165.00
2024-02-26T00:39:46.854Z,100162.56
2024-02-26T00:45:18.990Z,100161.56
2024-02-26T00:48:19.934Z,100163.78
2024-02-26T00:50:47.321Z,100175.75
2024-02-26T00:53:42.236Z,100175.25
2024-02-26T00:56:12.756Z,100168.50
2024-02-26T01:00:16.828Z,100173.94
2024-02-26T01:02:48.994Z,100173.94
2024-02-26T01:05:15.952Z,100165.00
2024-02-26T01:07:45.008Z,100166.59
2024-02-26T01:10:12.209Z,100174.75
2024-02-26T01:20:51.978Z,100156.25
2024-02-26T01:27:48.003Z,100164.91
2024-02-26T01:30:46.492Z,100160.28
2024-02-26T01:37:44.276Z,100150.22
2024-02-26T01:40:38.214Z,100154.53
2024-02-26T01:43:10.679Z,100145.91
2024-02-26T01:46:01.715Z,100159.94
2024-02-26T01:49:14.186Z,100152.94
2024-02-26T01:52:31.008Z,100144.81
2024-02-26T01:55:20.516Z,100153.25
2024-02-26T02:01:39.881Z,100168.59
2024-02-26T02:04:19.785Z,100172.41
2024-02-26T02:09:59.862Z,100176.44
2024-02-26T02:12:40.837Z,100184.28
2024-02-26T02:15:08.542Z,100175.34
2024-02-26T02:17:35.542Z,100178.84
2024-02-26T02:20:02.739Z,100187.50
2024-02-26T02:23:19.263Z,100189.13
2024-02-26T02:25:46.137Z,100192.94
2024-02-26T02:31:40.674Z,100191.03
2024-02-26T02:37:45.862Z,100192.34
2024-02-26T02:40:38.710Z,100204.78
2024-02-26T02:43:05.769Z,100199.38
2024-02-26T02:46:00.845Z,100213.44
2024-02-26T02:52:25.772Z,100213.44
2024-02-26T02:55:18.017Z,100212.84
2024-02-26T02:57:47.734Z,100218.56
2024-02-26T03:00:15.708Z,100220.47
2024-02-26T03:02:48.918Z,100222.09
2024-02-26T03:05:19.656Z,100224.50
2024-02-26T03:08:05.694Z,100229.94
2024-02-26T03:10:32.464Z,100233.75
2024-02-26T03:13:17.437Z,100235.66
2024-02-26T03:16:37.097Z,100245.41
2024-02-26T03:19:28.961Z,100260.09
2024-02-26T03:21:55.621Z,100256.88
2024-02-26T03:24:47.637Z,100258.47
2024-02-26T03:27:19.104Z,100252.03
2024-02-26T03:33:01.870Z,100259.88
2024-02-26T03:35:29.454Z,100260.47
2024-02-26T03:37:56.172Z,100267.81
2024-02-26T03:40:48.222Z,100258.88
2024-02-26T03:46:22.314Z,100270.00
2024-02-26T03:48:49.359Z,100271.13
2024-02-26T03:51:22.311Z,100269.81
2024-02-26T03:57:53.371Z,100274.94
2024-02-26T04:03:47.746Z,100267.38
2024-02-26T04:06:19.138Z,100275.53
2024-02-26T04:08:50.762Z,100271.19
2024-02-26T04:15:20.790Z,100273.13
2024-02-26T04:21:20.846Z,100286.09
2024-02-26T04:24:22.447Z,100282.06
2024-02-26T04:26:50.952Z,100287.19
2024-02-26T04:34:01.964Z,100293.41
2024-02-26T04:37:22.287Z,100299.66
2024-02-26T04:39:51.417Z,100295.03
2024-02-26T04:42:25.632Z,100302.06
2024-02-26T04:44:52.428Z,100304.50
2024-02-26T04:47:19.073Z,100305.28
2024-02-26T04:49:45.803Z,100302.59
2024-02-26T04:53:06.148Z,100306.63
2024-02-26T04:58:43.780Z,100306.91
2024-02-26T05:05:31.311Z,100315.78
2024-02-26T05:24:18.160Z,100325.31
2024-02-26T05:27:50.597Z,100325.03
2024-02-26T05:30:35.875Z,100330.44
2024-02-26T05:33:53.873Z,100329.66
2024-02-26T05:42:39.889Z,100333.75
2024-02-26T05:45:20.923Z,100335.66
2024-02-26T05:53:10.509Z,100348.13
2024-02-26T05:59:42.760Z,100353.34
2024-02-26T06:02:21.499Z,100363.38
2024-02-26T06:09:37.188Z,100366.63
2024-02-26T06:12:04.352Z,100374.75
2024-02-26T06:14:57.730Z,100369.03
2024-02-26T06:17:24.379Z,100373.66
2024-02-26T06:20:21.874Z,100372.84
2024-02-26T06:26:39.189Z,100382.59
2024-02-26T06:33:37.039Z,100394.50
2024-02-26T06:36:04.225Z,100385.25
2024-02-26T06:38:46.774Z,100398.00
2024-02-26T06:41:16.623Z,100396.41
2024-02-26T06:43:43.479Z,100408.06
2024-02-26T06:46:24.249Z,100413.50
2024-02-26T06:51:38.370Z,100409.97
2024-02-26T06:58:16.611Z,100419.13
2024-02-26T07:00:52.625Z,100419.72
2024-02-26T07:09:23.878Z,100437.31
2024-02-26T07:15:09.328Z,100448.69
2024-02-26T07:18:51.146Z,100443.78
2024-02-26T07:26:03.149Z,100466.00
2024-02-26T07:28:29.948Z,100466.00
2024-02-26T07:34:55.825Z,100473.88
2024-02-26T07:41:22.469Z,100466.22
2024-02-26T07:44:21.669Z,100471.88
2024-02-26T07:46:55.246Z,100473.78
2024-02-26T07:49:48.342Z,100479.22
2024-02-26T07:55:26.413Z,100490.59
2024-02-26T07:57:53.112Z,100502.28
2024-02-26T08:00:30.230Z,100508.00
2024-02-26T08:03:23.749Z,100507.38
2024-02-26T08:05:52.990Z,100499.75
2024-02-26T08:08:23.249Z,100506.28
2024-02-26T08:10:50.272Z,100513.03
2024-02-26T08:13:16.932Z,100516.25
2024-02-26T08:15:56.074Z,100519.78
2024-02-26T08:24:28.609Z,100523.00
2024-02-26T08:26:55.612Z,100516.78
2024-02-26T08:29:24.855Z,100527.34
2024-02-26T08:32:51.959Z,100538.19
2024-02-26T08:35:27.519Z,100541.44
2024-02-26T08:37:54.093Z,100540.63
2024-02-26T08:40:30.354Z,100545.25
2024-02-26T08:42:56.949Z,100547.97
2024-02-26T08:45:55.558Z,100547.69
2024-02-26T08:48:28.144Z,100541.94
2024-02-26T08:50:54.839Z,100555.47
2024-02-26T08:53:27.745Z,100555.47
2024-02-26T08:56:01.786Z,100556.56
2024-02-26T08:58:29.385Z,100571.75
2024-02-26T09:00:56.563Z,100570.94
2024-02-26T09:03:23.492Z,100577.47
2024-02-26T09:05:52.922Z,100563.91
2024-02-26T09:08:23.284Z,100579.38
2024-02-26T09:10:58.122Z,100581.00
2024-02-26T09:13:24.894Z,100582.91
2024-02-26T09:15:51.476Z,100590.25
2024-02-26T09:18:23.694Z,100582.41
2024-02-26T09:20:52.052Z,100586.22
2024-02-26T09:23:18.978Z,100586.22
2024-02-26T09:25:45.514Z,100596.78
2024-02-26T09:28:18.060Z,100609.56
2024-02-26T09:30:52.733Z,100606.31
2024-02-26T09:33:19.633Z,100609.03
2024-02-26T09:35:46.242Z,100613.66
2024-02-26T09:38:12.823Z,100607.13
2024-02-26T09:40:42.507Z,100617.94
2024-02-26T09:43:15.107Z,100621.75
2024-02-26T09:45:42.459Z,100627.69
2024-02-26T09:48:17.839Z,100622.25
2024-02-26T09:50:45.117Z,100625.78
2024-02-26T09:53:13.608Z,100624.69
2024-02-26T09:55:40.466Z,100629.81
2024-02-26T09:58:08.312Z,100633.06
2024-02-26T10:00:38.823Z,100645.53
2024-02-26T10:03:11.049Z,100643.41
2024-02-26T10:05:41.386Z,100650.47
2024-02-26T10:08:10.453Z,100655.09
2024-02-26T10:10:40.914Z,100654.78
2024-02-26T10:13:11.181Z,100656.41
2024-02-26T10:15:37.882Z,100655.88
2024-02-26T10:18:25.699Z,100659.13
2024-02-26T10:21:05.396Z,100666.69
2024-02-26T10:23:32.261Z,100665.59
2024-02-26T10:26:08.150Z,100679.69
2024-02-26T10:28:41.418Z,100682.69
2024-02-26T10:31:10.330Z,100689.44
2024-02-26T10:33:44.433Z,100686.72
2024-02-26T10:36:11.915Z,100695.38
2024-02-26T10:38:40.028Z,100698.91
2024-02-26T10:41:21.621Z,100697.00
2024-02-26T10:43:49.049Z,100707.88
2024-02-26T10:46:17.359Z,100708.38
2024-02-26T10:48:54.717Z,100713.81
2024-02-26T10:51:28.512Z,100710.53
2024-02-26T10:54:04.892Z,100724.13
2024-02-26T10:56:35.131Z,100722.94
2024-02-26T10:59:02.855Z,100731.91
2024-02-26T11:01:33.415Z,100731.63
2024-02-26T11:04:02.996Z,100734.56
2024-02-26T11:06:31.033Z,100736.41
2024-02-26T11:09:00.492Z,100741.84
2024-02-26T11:11:28.956Z,100744.03
2024-02-26T11:13:59.206Z,100740.75
2024-02-26T11:16:27.435Z,100752.13
2024-02-26T11:19:01.670Z,100757.28
2024-02-26T11:21:32.393Z,100760.00
2024-02-26T11:23:59.054Z,100754.75
2024-02-26T11:26:27.846Z,100748.84
2024-02-26T11:28:54.883Z,100765.16
2024-02-26T11:31:28.306Z,100765.44
2024-02-26T11:33:58.663Z,100772.50
2024-02-26T11:36:25.783Z,100773.31
2024-02-26T11:38:53.497Z,100765.44
2024-02-26T11:41:23.370Z,100772.50
2024-02-26T11:44:01.903Z,100770.06
2024-02-26T11:54:54.354Z,100784.19
2024-02-26T11:57:24.871Z,100792.25
2024-02-26T12:00:30.660Z,100802.00
2024-02-26T12:03:03.415Z,100799.81
2024-02-26T12:06:35.130Z,100802.25
2024-02-26T12:09:02.681Z,100800.84
2024-02-26T12:11:32.337Z,100801.94
2024-02-26T12:14:29.255Z,100812.25
2024-02-26T12:16:58.310Z,100822.59
2024-02-26T12:19:25.076Z,100818.78
2024-02-26T12:22:34.317Z,100819.06
2024-02-26T12:25:09.408Z,100831.56
2024-02-26T12:27:40.728Z,100825.31
2024-02-26T12:30:16.742Z,100837.81
2024-02-26T12:36:07.079Z,100841.56
2024-02-26T12:42:45.001Z,100848.06
2024-02-26T12:45:13.200Z,100843.94
2024-02-26T12:47:51.043Z,100843.66
2024-02-26T12:50:18.349Z,100856.44
2024-02-26T12:52:50.133Z,100854.81
2024-02-26T12:55:27.210Z,100856.44
2024-02-26T12:58:06.485Z,100860.50
2024-02-26T13:00:34.330Z,100863.50
2024-02-26T13:03:10.732Z,100855.56
2024-02-26T13:08:35.393Z,100871.38
2024-02-26T13:11:19.920Z,100875.19
2024-02-26T13:14:01.065Z,100872.75
2024-02-26T13:16:36.623Z,100873.00
2024-02-26T13:19:24.123Z,100877.03
2024-02-26T13:21:51.261Z,100877.84
2024-02-26T13:24:26.228Z,100885.91
2024-02-26T13:26:59.042Z,100884.31
2024-02-26T13:30:31.034Z,100896.22
2024-02-26T13:33:34.713Z,100891.34
2024-02-26T13:36:02.479Z,100898.94
2024-02-26T13:38:44.277Z,100897.84
2024-02-26T13:41:11.085Z,100899.47
2024-02-26T13:43:40.365Z,100904.91
2024-02-26T13:46:27.551Z,100903.03
2024-02-26T13:49:08.139Z,100906.56
2024-02-26T13:51:36.521Z,100916.66
2024-02-26T13:57:09.859Z,100925.84
2024-02-26T14:00:04.383Z,100931.00
2024-02-26T14:02:38.512Z,100921.75
2024-02-26T14:05:08.541Z,100938.59
2024-02-26T14:07:49.760Z,100940.72
2024-02-26T14:10:18.693Z,100941.25
2024-02-26T14:13:46.471Z,100944.50
2024-02-26T14:17:04.732Z,100941.47
2024-02-26T14:19:32.905Z,100955.59
2024-02-26T14:21:59.925Z,100953.69
2024-02-26T14:24:29.793Z,100958.84
2024-02-26T14:26:56.614Z,100959.66
2024-02-26T14:29:23.220Z,100958.56
2024-02-26T14:31:49.862Z,100965.09
2024-02-26T14:34:18.813Z,100969.72
2024-02-26T14:40:00.191Z,100981.38
2024-02-26T14:42:35.983Z,100990.63
2024-02-26T14:45:07.234Z,100983.63
2024-02-26T14:47:58.967Z,100989.59
2024-02-26T14:50:25.672Z,100989.59
2024-02-26T14:55:58.024Z,101003.13
2024-02-26T14:58:24.634Z,101009.16
2024-02-26T15:00:57.101Z,101026.00
2024-02-26T15:03:27.415Z,101015.69
2024-02-26T15:05:59.516Z,101017.88
2024-02-26T15:08:53.750Z,101022.81
2024-02-26T15:11:24.902Z,101027.16
2024-02-26T15:13:52.950Z,101021.72
2024-02-26T15:19:50.852Z,101039.38
2024-02-26T15:22:19.044Z,101030.41
2024-02-26T15:25:36.957Z,101037.97
2024-02-26T15:28:29.910Z,101050.25
2024-02-26T15:34:02.442Z,101055.69
2024-02-26T15:36:31.081Z,101063.56
2024-02-26T15:38:58.517Z,101066.28
2024-02-26T15:41:26.003Z,101070.94
2024-02-26T15:43:55.718Z,101076.31
2024-02-26T15:46:25.710Z,101083.38
2024-02-26T15:59:15.935Z,101104.34
2024-02-26T16:09:26.388Z,101119.41
2024-02-26T16:25:58.524Z,101158.97
2024-02-26T16:28:29.486Z,101156.88
2024-02-26T16:31:18.058Z,101162.59
2024-02-26T16:33:49.084Z,101178.94
2024-02-26T16:36:18.754Z,101172.72
2024-02-26T16:38:48.454Z,101179.28
2024-02-26T16:41:15.753Z,101178.75
2024-02-26T16:43:48.323Z,101183.69
2024-02-26T16:46:32.416Z,101195.94
2024-02-26T16:51:56.305Z,101182.97
2024-02-26T16:54:57.723Z,101185.41
2024-02-26T16:58:11.939Z,101196.59
2024-02-26T17:10:03.697Z,101222.47
2024-02-26T17:10:39.617Z,101223.88
2024-02-26T17:13:23.901Z,101223.63
2024-02-26T17:16:14.548Z,101227.41
2024-02-26T17:18:44.240Z,101237.22
2024-02-26T17:22:09.557Z,101237.22
2024-02-26T17:24:46.881Z,101255.69
2024-02-26T17:27:13.839Z,101256.25
2024-02-26T17:29:43.646Z,101260.59
2024-02-26T17:32:12.213Z,101268.19
2024-02-26T17:34:40.677Z,101269.28
2024-02-26T17:44:25.940Z,101292.94
2024-02-26T18:01:15.772Z,101324.72
2024-02-26T18:04:27.211Z,101331.81
2024-02-26T18:07:09.708Z,101342.66
2024-02-26T18:10:19.405Z,101342.13
2024-02-26T18:13:19.756Z,101351.34
2024-02-26T18:15:46.537Z,101363.84
2024-02-26T18:22:29.945Z,101355.16
2024-02-26T18:26:05.447Z,101367.91
2024-02-26T18:29:50.335Z,101372.25
2024-02-26T18:32:34.975Z,101377.94
2024-02-26T18:35:38.102Z,101379.03
2024-02-26T18:47:24.685Z,101408.09
2024-02-26T19:41:35.577Z,101513.00
2024-02-26T19:47:24.845Z,101519.53
2024-02-26T19:58:06.715Z,101536.63
2024-02-26T20:16:41.057Z,101582.13
2024-02-26T20:19:32.995Z,101574.53
2024-02-26T20:22:22.466Z,101582.91
2024-02-26T20:29:01.595Z,101596.72
2024-02-26T20:42:36.785Z,101602.88
2024-02-26T20:49:39.366Z,101610.44
2024-02-26T20:52:09.166Z,101611.56
2024-02-26T20:54:48.304Z,101615.34
2024-02-26T21:15:01.989Z,101657.16
2024-02-26T21:25:10.773Z,101655.81
2024-02-26T21:27:37.405Z,101663.13
2024-02-26T21:30:04.859Z,101666.66
2024-02-26T21:32:35.913Z,101670.44
2024-02-26T21:35:09.976Z,101669.63
2024-02-26T21:37:39.767Z,101671.78
2024-02-26T21:40:10.093Z,101672.84
2024-02-26T21:42:38.201Z,101689.13
2024-02-26T21:45:07.781Z,101689.13
2024-02-26T21:47:34.403Z,101684.78
2024-02-26T21:50:01.043Z,101695.06
2024-02-26T21:52:27.540Z,101697.78
2024-02-26T21:54:56.597Z,101698.84
2024-02-26T21:57:31.978Z,101692.34
2024-02-26T21:59:58.662Z,101703.19
2024-02-26T22:02:29.961Z,101699.41
2024-02-26T22:04:56.566Z,101699.69
2024-02-26T22:07:28.233Z,101702.38
2024-02-26T22:09:54.995Z,101714.06
2024-02-26T22:12:26.450Z,101712.41
2024-02-26T22:18:33.792Z,101718.66
2024-02-26T22:21:03.112Z,101722.19
2024-02-26T22:23:31.563Z,101720.28
2024-02-26T22:25:58.183Z,101719.72
2024-02-26T22:28:25.777Z,101723.25
2024-02-26T22:30:56.143Z,101720.03
2024-02-26T22:33:32.662Z,101720.03
2024-02-26T22:36:00.915Z,101729.75
2024-02-26T22:38:33.438Z,101718.59
2024-02-26T22:41:01.330Z,101726.97
2024-02-26T22:43:28.433Z,101742.13
2024-02-26T22:45:55.036Z,101742.63
2024-02-26T22:49:11.904Z,101745.84
2024-02-26T22:51:39.187Z,101749.31
2024-02-26T22:54:08.387Z,101755.50
2024-02-26T22:56:34.953Z,101755.75
2024-02-26T22:59:09.527Z,101754.41
2024-02-26T23:01:37.200Z,101758.69
2024-02-26T23:04:06.659Z,101763.53
2024-02-26T23:07:02.135Z,101755.91
2024-02-26T23:09:29.519Z,101754.28
2024-02-26T23:15:07.672Z,101755.84
2024-02-26T23:17:35.159Z,101772.09
2024-02-26T23:20:02.132Z,101770.47
2024-02-26T23:22:28.735Z,101776.13
2024-02-26T23:24:55.458Z,101779.91
2024-02-26T23:27:23.077Z,101781.81
2024-02-26T23:29:52.163Z,101788.28
2024-02-26T23:32:43.812Z,101780.97
2024-02-26T23:35:16.227Z,101777.47
2024-02-26T23:37:42.834Z,101781.50
2024-02-26T23:40:09.571Z,101779.84
2024-02-26T23:42:36.679Z,101786.34
2024-02-26T23:45:29.860Z,101783.31
2024-02-26T23:47:56.730Z,101789.81
2024-02-26T23:50:24.949Z,101787.34
2024-02-26T23:52:52.966Z,101789.22
2024-02-26T23:55:26.012Z,101785.97
2024-02-26T23:57:56.149Z,101785.91
